Time;durP1;ratioP1;P1;durP2;ratioP2;P2;SDS_P1;SDS_P2;PMS_P1;PMS_P2;Temp;Humidity;BMP_temperature;BMP_pressure;BME280_temperature;BME280_humidity;BME280_pressure;Samples;Min_cycle;Max_cycle;Signal;HPM_P1;HPM_P2
2023/01/03 00:00:05;;;;;;;1.85;0.60;;;11.90;67.00;;;7.40;100.00;96603.25;4990545;28;20042;-53
2023/01/03 00:02:31;;;;;;;1.00;0.50;;;11.90;67.00;;;7.34;100.00;96596.19;4988910;28;20392;-53
2023/01/03 00:04:57;;;;;;;0.50;0.50;;;11.90;67.00;;;7.34;100.00;96598.81;4973234;28;20026;-53
2023/01/03 00:07:34;;;;;;;1.10;0.50;;;11.80;66.90;;;7.35;100.00;96592.47;4988930;28;20030;-59
2023/01/03 00:10:10;;;;;;;0.65;0.40;;;11.80;67.00;;;7.33;100.00;96599.84;4990629;28;20029;-59
2023/01/03 00:12:42;;;;;;;0.57;0.43;;;11.80;67.00;;;7.30;100.00;96597.63;4981802;28;20025;-55
2023/01/03 00:15:10;;;;;;;0.67;0.60;;;11.80;67.00;;;7.27;100.00;96600.72;4973072;28;20026;-58
2023/01/03 00:17:35;;;;;;;1.20;0.55;;;11.70;66.90;;;7.28;100.00;96603.16;4988948;28;20049;-57
2023/01/03 00:20:10;;;;;;;1.60;0.60;;;11.70;66.90;;;7.31;100.00;96599.25;4988423;28;20544;-57
2023/01/03 00:22:37;;;;;;;0.90;0.60;;;11.70;67.00;;;7.31;100.00;96593.97;4990801;28;20573;-56
2023/01/03 00:25:10;;;;;;;0.50;0.50;;;11.70;67.00;;;7.31;100.00;96591.31;4988601;28;20080;-55
2023/01/03 00:27:36;;;;;;;0.97;0.60;;;11.70;67.00;;;7.31;100.00;96594.75;4956461;28;20053;-55
2023/01/03 00:30:02;;;;;;;0.82;0.77;;;11.70;67.10;;;7.31;100.00;96604.56;4988472;28;20322;-54
2023/01/03 00:32:28;;;;;;;0.98;0.70;;;11.70;67.10;;;7.29;100.00;96607.41;4988727;28;20024;-56
2023/01/03 00:35:00;;;;;;;1.33;0.65;;;11.70;67.20;;;7.26;100.00;96602.56;4973118;28;20026;-57
2023/01/03 00:37:29;;;;;;;0.90;0.80;;;11.70;67.20;;;7.25;100.00;96602.78;4989070;28;20046;-56
2023/01/03 00:39:55;;;;;;;3.78;0.93;;;11.70;67.10;;;7.27;100.00;96598.88;4994280;28;20053;-55
2023/01/03 00:42:20;;;;;;;2.92;1.10;;;11.70;67.20;;;7.28;100.00;96599.69;4975700;28;20061;-56
2023/01/03 00:44:46;;;;;;;2.42;0.80;;;11.70;67.20;;;7.29;100.00;96596.00;4994013;28;20071;-52
2023/01/03 00:47:12;;;;;;;1.65;0.80;;;11.70;67.20;;;7.29;100.00;96596.00;4960048;28;20022;-52
2023/01/03 00:49:38;;;;;;;1.45;0.90;;;11.80;67.20;;;7.26;100.00;96586.66;4975995;28;20476;-52
2023/01/03 00:52:07;;;;;;;1.77;0.85;;;11.80;67.30;;;7.23;100.00;96587.09;4976531;28;20065;-53
2023/01/03 00:54:33;;;;;;;1.23;0.80;;;11.80;67.30;;;7.17;100.00;96587.97;4975728;28;20028;-56
2023/01/03 00:56:59;;;;;;;0.98;0.77;;;11.80;67.20;;;7.18;100.00;96584.31;4992016;28;20021;-58
2023/01/03 00:59:28;;;;;;;1.52;0.90;;;11.70;67.00;;;7.16;100.00;96578.41;4976350;28;20483;-59
2023/01/03 01:01:57;;;;;;;3.00;0.77;;;11.70;67.20;;;7.15;100.00;96582.88;4966272;28;20029;-56
2023/01/03 01:04:30;;;;;;;1.52;0.75;;;11.60;67.20;;;7.11;100.00;96596.78;4993963;28;20156;-56
2023/01/03 01:07:03;;;;;;;1.15;0.75;;;11.60;67.30;;;7.08;100.00;96591.91;4992416;28;20037;-58
2023/01/03 01:09:39;;;;;;;1.17;0.70;;;11.60;67.30;;;7.06;100.00;96589.50;4992547;28;20030;-57
2023/01/03 01:12:06;;;;;;;0.98;0.63;;;11.60;67.50;;;7.04;100.00;96594.19;4992450;28;20040;-57
2023/01/03 01:14:32;;;;;;;2.05;0.85;;;11.60;67.50;;;7.02;100.00;96590.97;4976066;28;20798;-55
2023/01/03 01:17:07;;;;;;;5.85;0.85;;;11.60;67.40;;;7.00;100.00;96582.41;4975845;28;20036;-58
2023/01/03 01:19:44;;;;;;;1.42;0.70;;;11.60;67.50;;;6.98;100.00;96581.81;4992147;28;20117;-56
2023/01/03 01:22:11;;;;;;;2.50;0.73;;;11.60;67.50;;;6.97;100.00;96582.03;4993730;28;20026;-56
2023/01/03 01:24:38;;;;;;;0.82;0.68;;;11.60;67.50;;;6.93;100.00;96589.63;4990900;28;20025;-56
2023/01/03 01:27:04;;;;;;;1.80;0.70;;;11.50;67.50;;;6.91;100.00;96586.34;4991829;28;20064;-58
2023/01/03 01:29:30;;;;;;;2.30;0.70;;;11.50;67.50;;;6.91;100.00;96595.13;4993091;28;20022;-56
2023/01/03 01:32:05;;;;;;;1.38;0.68;;;11.50;67.60;;;6.89;100.00;96589.25;4992320;28;20044;-53
2023/01/03 01:34:32;;;;;;;1.17;0.60;;;11.50;67.70;;;6.86;100.00;96594.13;4992060;28;20419;-55
2023/01/03 01:37:01;;;;;;;1.20;0.80;;;11.50;67.70;;;6.84;100.00;96594.38;4941937;28;20076;-52
2023/01/03 01:39:28;;;;;;;0.77;0.77;;;11.40;67.70;;;6.79;100.00;96588.09;4963126;28;20491;-52
2023/01/03 01:45:14;;;;;;;2.38;0.80;;;11.40;67.80;;;6.72;100.00;96583.66;4983519;28;20484;-54
2023/01/03 01:48:11;;;;;;;1.33;0.80;;;11.30;67.80;;;6.68;100.00;96579.81;4947495;28;20049;-57
2023/01/03 01:50:52;;;;;;;0.70;0.70;;;11.30;67.90;;;6.63;100.00;96584.13;4991540;28;20029;-54
2023/01/03 01:53:33;;;;;;;0.82;0.80;;;11.30;67.90;;;6.61;100.00;96592.31;4991802;28;20030;-55
2023/01/03 01:56:24;;;;;;;1.00;0.70;;;11.30;68.10;;;6.65;100.00;96592.69;4989968;28;20071;-57
2023/01/03 01:58:54;;;;;;;0.77;0.77;;;11.20;68.10;;;6.66;100.00;96595.09;4992906;28;20014;-57
2023/01/03 02:01:23;;;;;;;0.93;0.77;;;11.20;68.20;;;6.66;100.00;96602.25;4990571;28;20068;-59
2023/01/03 02:04:32;;;;;;;1.50;0.80;;;11.20;68.30;;;6.67;100.00;96611.78;4975445;28;20062;-57
2023/01/03 02:07:00;;;;;;;1.08;0.70;;;11.20;68.30;;;6.64;100.00;96598.97;4968855;28;20133;-52
2023/01/03 02:09:32;;;;;;;0.82;0.77;;;11.20;68.30;;;6.64;100.00;96610.41;4943499;28;20022;-54
2023/01/03 02:13:06;;;;;;;1.23;0.90;;;11.20;68.20;;;6.66;100.00;96602.25;4992457;28;20022;-53
2023/01/03 02:16:15;;;;;;;2.45;0.57;;;11.30;69.10;;;6.64;100.00;96594.53;4988734;28;20911;-54
2023/01/03 02:20:14;;;;;;;1.38;0.60;;;11.30;68.20;;;6.62;100.00;96585.97;4974399;28;20030;-58
2023/01/03 02:23:39;;;;;;;2.92;0.80;;;11.30;68.20;;;6.61;100.00;96586.19;4947314;28;20454;-53
2023/01/03 02:26:52;;;;;;;1.25;0.70;;;11.30;68.20;;;6.60;100.00;96577.44;4968821;28;20141;-53
2023/01/03 02:30:08;;;;;;;2.33;0.80;;;11.20;68.20;;;6.58;100.00;96578.66;4977097;28;20033;-57
2023/01/03 02:32:38;;;;;;;1.25;0.90;;;11.20;68.30;;;6.58;100.00;96573.38;4991478;28;20112;-54
2023/01/03 02:35:44;;;;;;;3.45;1.00;;;11.20;68.30;;;6.60;100.00;96581.91;4974763;28;20423;-55
2023/01/03 02:38:46;;;;;;;1.40;0.95;;;11.20;68.40;;;6.57;100.00;96567.25;4967130;28;20042;-53
2023/01/03 02:45:15;;;;;;;;;;;11.20;68.30;;;6.52;100.00;96577.72;4983752;28;20599;-55
2023/01/03 02:48:10;;;;;;;4.95;2.60;;;11.10;68.00;;;6.50;100.00;96574.44;4979945;28;19909;-56
2023/01/03 02:50:54;;;;;;;1.20;1.10;;;11.10;68.30;;;6.49;100.00;96572.84;4990582;28;20033;-52
2023/01/03 02:53:43;;;;;;;1.58;1.13;;;11.10;68.50;;;6.51;100.00;96577.91;4974283;28;20021;-57
2023/01/03 02:56:29;;;;;;;2.08;1.02;;;11.10;68.60;;;6.49;100.00;96567.53;4988758;28;20025;-53
2023/01/03 02:59:12;;;;;;;1.63;1.13;;;11.10;68.60;;;6.47;100.00;96573.03;4978016;28;20033;-53
2023/01/03 03:01:49;;;;;;;5.15;1.00;;;11.10;68.70;;;6.50;100.00;96577.09;4972607;28;20453;-55
2023/01/03 03:04:16;;;;;;;1.98;1.02;;;11.10;68.70;;;6.51;100.00;96578.72;4990564;28;20033;-53
2023/01/03 03:06:58;;;;;;;1.58;0.90;;;11.10;68.70;;;6.53;100.00;96583.81;4988524;28;20080;-54
2023/01/03 03:09:24;;;;;;;2.83;0.97;;;11.10;68.90;;;6.53;100.00;96587.25;4974074;28;20025;-59
2023/01/03 03:14:53;;;;;;;1.55;1.20;;;11.10;68.90;;;6.50;100.00;96579.75;4964355;28;20032;-54
2023/01/03 03:17:29;;;;;;;1.98;1.30;;;11.10;68.90;;;6.51;100.00;96580.56;4989848;28;20022;-52
2023/01/03 03:26:03;;;;;;;1.58;1.08;;;11.10;69.10;;;6.54;100.00;96590.72;4987949;28;20092;-58
2023/01/03 03:28:43;;;;;;;2.00;1.30;;;11.10;69.20;;;6.56;100.00;96596.63;4990218;28;20078;-55
2023/01/03 03:31:24;;;;;;;3.08;1.40;;;11.10;69.30;;;6.56;100.00;96592.13;4989844;28;20026;-58
2023/01/03 03:34:28;;;;;;;2.00;1.33;;;11.10;69.30;;;6.57;100.00;96590.28;4991108;28;20091;-58
2023/01/03 03:37:10;;;;;;;2.60;1.38;;;11.20;69.40;;;6.60;100.00;96590.66;4989178;28;20073;-55
2023/01/03 03:46:03;;;;;;;3.92;1.45;;;11.20;69.40;;;6.65;100.00;96577.59;4973098;28;20032;-56
2023/01/03 03:51:51;;;;;;;4.35;1.23;;;11.30;69.30;;;6.67;100.00;96572.88;4983816;28;20506;-57
2023/01/03 03:54:23;;;;;;;1.73;1.40;;;11.30;69.30;;;6.67;100.00;96569.44;4975110;28;20029;-58
2023/01/03 03:57:14;;;;;;;2.30;1.50;;;11.30;69.30;;;6.67;100.00;96578.19;4973429;28;20049;-56
2023/01/03 03:59:47;;;;;;;1.88;1.40;;;11.30;69.30;;;6.66;100.00;96576.56;4989411;28;20026;-52
2023/01/03 04:02:19;;;;;;;1.73;1.45;;;11.30;69.30;;;6.64;100.00;96570.69;4979575;28;20029;-56
2023/01/03 04:05:01;;;;;;;1.48;1.13;;;11.20;69.20;;;6.64;100.00;96573.34;4953024;28;20044;-53
2023/01/03 04:07:28;;;;;;;2.42;1.50;;;11.20;69.30;;;6.62;100.00;96575.38;4963999;28;20117;-55
2023/01/03 04:10:00;;;;;;;2.88;1.80;;;11.20;69.30;;;6.61;100.00;96576.41;4963039;28;20030;-54
2023/01/03 04:12:28;;;;;;;3.40;1.65;;;11.20;69.30;;;6.59;100.00;96573.16;4988317;28;20053;-55
2023/01/03 04:15:05;;;;;;;3.05;1.75;;;11.20;69.30;;;6.58;100.00;96570.72;4976617;28;20034;-56
2023/01/03 04:17:32;;;;;;;4.03;1.65;;;11.20;69.50;;;6.53;100.00;96568.72;4975843;28;20026;-55
2023/01/03 04:20:26;;;;;;;2.38;1.80;;;11.10;69.30;;;6.52;100.00;96563.63;4974504;28;20064;-56
2023/01/03 04:22:53;;;;;;;2.10;1.35;;;11.10;69.50;;;6.53;100.00;96578.50;4993208;28;20032;-56
2023/01/03 04:25:31;;;;;;;3.58;1.42;;;11.10;69.50;;;6.49;100.00;96568.34;4975146;28;20022;-55
2023/01/03 04:27:59;;;;;;;4.03;1.60;;;11.10;69.60;;;6.49;100.00;96575.50;4993412;28;20037;-57
2023/01/03 04:30:25;;;;;;;3.85;2.10;;;11.00;69.60;;;6.46;100.00;96567.97;4964930;28;20025;-57
2023/01/03 04:32:55;;;;;;;3.38;1.70;;;11.00;69.50;;;6.44;100.00;96565.53;4992855;28;20538;-52
2023/01/03 04:35:23;;;;;;;3.38;1.70;;;11.00;69.60;;;6.41;100.00;96559.84;4967728;28;20104;-53
2023/01/03 04:37:52;;;;;;;2.70;1.65;;;11.00;69.60;;;6.39;100.00;96553.94;4986666;28;20080;-55
2023/01/03 04:40:18;;;;;;;2.35;1.67;;;11.00;69.50;;;6.36;100.00;96564.97;4955085;28;20024;-54
2023/01/03 04:45:31;;;;;;;4.03;1.90;;;11.00;69.70;;;6.36;100.00;96562.31;4989731;28;20040;-54
2023/01/03 04:48:04;;;;;;;3.13;2.00;;;11.00;69.80;;;6.32;100.00;96567.22;4984163;28;20038;-54
2023/01/03 04:50:35;;;;;;;3.58;1.83;;;10.90;69.90;;;6.31;100.00;96573.56;4991450;28;20056;-53
2023/01/03 04:53:13;;;;;;;2.40;1.80;;;10.90;69.90;;;6.34;100.00;96585.56;4993102;28;20091;-52
2023/01/03 04:55:46;;;;;;;2.20;1.65;;;11.00;70.00;;;6.34;100.00;96582.91;4989353;28;20026;-53
2023/01/03 04:58:12;;;;;;;;;;;10.90;69.90;;;6.34;100.00;96581.06;4993968;28;20072;-55
2023/01/03 05:00:41;;;;;;;2.17;1.60;;;10.90;69.50;;;6.36;100.00;96586.13;4991775;28;19909;-54
2023/01/03 05:03:07;;;;;;;3.35;1.52;;;10.90;69.70;;;6.35;100.00;96580.03;4992023;28;20021;-55
2023/01/03 05:05:40;;;;;;;1.70;1.55;;;10.90;69.60;;;6.37;100.00;96579.84;4992137;28;20552;-56
2023/01/03 05:08:11;;;;;;;;;;;11.00;69.90;;;6.35;100.00;96587.97;4989469;28;20038;-55
2023/01/03 05:10:39;;;;;;;2.22;1.75;;;10.90;69.50;;;6.34;100.00;96586.38;4991243;28;19928;-56
2023/01/03 05:13:14;;;;;;;2.67;1.60;;;11.00;69.70;;;6.33;100.00;96590.03;4974022;28;20029;-56
2023/01/03 05:15:45;;;;;;;3.22;2.20;;;11.00;69.80;;;6.33;100.00;96589.22;4992893;28;20028;-52
2023/01/03 05:18:11;;;;;;;5.03;2.20;;;11.00;69.90;;;6.32;100.00;96595.53;4974966;28;20026;-55
2023/01/03 05:26:20;;;;;;;1.95;1.48;;;11.00;69.90;;;6.36;100.00;96602.84;4991915;28;20171;-52
2023/01/03 05:28:53;;;;;;;3.80;1.55;;;11.00;70.00;;;6.38;100.00;96602.63;4972509;28;20045;-55
2023/01/03 05:31:29;;;;;;;;;;;11.00;70.00;;;6.36;100.00;96594.91;4991230;28;20029;-52
2023/01/03 05:33:59;;;;;;;14.07;1.98;;;11.00;69.60;;;6.36;100.00;96600.22;4973035;28;19913;-55
2023/01/03 05:36:25;;;;;;;3.15;1.90;;;11.00;69.80;;;6.36;100.00;96602.84;4985614;23;20053;-56
2023/01/03 05:38:53;;;;;;;5.45;1.80;;;11.00;69.80;;;6.34;100.00;96604.88;4981458;28;20500;-55
2023/01/03 05:44:21;;;;;;;4.18;1.83;;;11.00;70.00;;;6.35;100.00;96613.63;4995778;28;20140;-57
2023/01/03 05:46:53;;;;;;;3.80;2.45;;;10.90;70.00;;;6.33;100.00;96616.50;4971696;28;20025;-57
2023/01/03 05:49:28;;;;;;;4.18;2.10;;;11.00;70.10;;;6.32;100.00;96614.06;4976770;28;20036;-55
2023/01/03 05:51:59;;;;;;;3.22;2.17;;;11.00;70.10;;;6.30;100.00;96614.28;4987952;28;20029;-55
2023/01/03 05:54:25;;;;;;;3.88;2.42;;;11.00;70.10;;;6.30;100.00;96616.94;4979849;28;20021;-56
2023/01/03 05:56:54;;;;;;;3.03;2.13;;;10.90;70.00;;;6.28;100.00;96621.63;4994520;28;20040;-55
2023/01/03 05:59:21;;;;;;;4.63;2.25;;;10.90;70.00;;;6.27;100.00;96622.66;4994432;28;20141;-57
2023/01/03 06:02:05;;;;;;;3.35;2.25;;;10.90;70.00;;;6.25;100.00;96617.56;4990146;28;20056;-55
2023/01/03 06:04:36;;;;;;;5.15;2.40;;;10.90;70.00;;;6.22;100.00;96628.56;4996915;28;20052;-54
2023/01/03 06:07:02;;;;;;;3.38;2.38;;;10.90;70.10;;;6.23;100.00;96624.06;5002611;28;20456;-56
2023/01/03 06:09:31;;;;;;;4.45;2.60;;;10.80;70.10;;;6.22;100.00;96636.50;5011831;28;20044;-56
2023/01/03 06:11:57;;;;;;;5.30;2.15;;;10.80;70.20;;;6.24;100.00;96633.66;4994575;28;20029;-57
2023/01/03 06:14:23;;;;;;;4.30;2.72;;;10.80;70.30;;;6.21;100.00;96632.22;4994006;28;20391;-57
2023/01/03 06:19:33;;;;;;;8.32;5.80;;;10.80;70.40;;;6.18;100.00;96643.25;5009626;28;20055;-58
2023/01/03 06:22:08;;;;;;;6.85;4.38;;;10.80;70.40;;;6.19;100.00;96651.97;4990002;28;20049;-56
2023/01/03 06:24:38;;;;;;;6.53;3.28;;;10.80;70.40;;;6.20;100.00;96661.53;5023063;28;20029;-57
2023/01/03 06:27:04;;;;;;;5.88;3.00;;;10.80;70.40;;;6.19;100.00;96657.28;4994451;28;20574;-57
2023/01/03 06:29:30;;;;;;;5.30;3.35;;;10.80;70.50;;;6.18;100.00;96666.25;4984425;28;20119;-58
2023/01/03 06:31:59;;;;;;;6.35;2.90;;;10.80;70.50;;;6.19;100.00;96668.66;4981639;28;20057;-56
2023/01/03 06:34:25;;;;;;;4.20;2.20;;;10.80;70.60;;;6.21;100.00;96661.34;4992894;28;20020;-55
2023/01/03 06:36:51;;;;;;;6.57;3.08;;;10.80;70.50;;;6.22;100.00;96662.94;4978743;28;20056;-56
2023/01/03 06:39:23;;;;;;;4.07;2.40;;;10.80;70.50;;;6.22;100.00;96675.38;4997639;28;20025;-56
2023/01/03 06:41:48;;;;;;;5.68;2.40;;;10.80;70.60;;;6.21;100.00;96673.75;4979459;28;20033;-54
2023/01/03 06:44:14;;;;;;;4.88;3.00;;;10.80;70.50;;;6.20;100.00;96667.63;4978251;28;20528;-55
2023/01/03 06:55:02;;;;;;;4.43;2.80;;;10.80;70.60;;;6.12;100.00;96670.53;4976488;28;20033;-56
2023/01/03 06:57:31;;;;;;;5.63;3.47;;;10.80;70.40;;;6.12;100.00;96669.72;4993426;28;20080;-53
2023/01/03 06:59:59;;;;;;;4.70;3.20;;;10.90;70.60;;;6.14;100.00;96678.25;4995310;28;20104;-55
2023/01/03 07:02:25;;;;;;;4.70;3.30;;;10.90;70.60;;;6.14;100.00;96676.44;4973386;28;20121;-55
2023/01/03 07:04:51;;;;;;;15.65;3.50;;;10.90;70.60;;;6.14;100.00;96684.38;4990194;28;20026;-57
2023/01/03 07:07:17;;;;;;;6.78;3.30;;;10.80;70.50;;;6.14;100.00;96683.53;4988591;28;20033;-57
2023/01/03 07:09:45;;;;;;;6.35;3.25;;;10.90;70.50;;;6.15;100.00;96690.47;4988733;28;20014;-57
2023/01/03 07:14:55;;;;;;;31.60;4.70;;;10.90;70.60;;;6.17;100.00;96693.69;4981483;28;20032;-54
2023/01/03 07:17:21;;;;;;;4.93;3.35;;;10.90;70.60;;;6.17;100.00;96694.53;4983545;28;20034;-54
2023/01/03 07:19:47;;;;;;;4.03;2.83;;;10.90;70.70;;;6.20;100.00;96693.28;4986385;28;20044;-55
2023/01/03 07:22:12;;;;;;;10.77;3.38;;;10.90;70.70;;;6.17;100.00;96699.84;5004985;28;20029;-56
2023/01/03 07:24:47;;;;;;;6.00;3.35;;;10.90;70.60;;;6.19;100.00;96700.41;4988239;28;20029;-56
2023/01/03 07:27:13;;;;;;;14.52;4.38;;;10.90;70.70;;;6.22;100.00;96699.19;4977782;28;20034;-57
2023/01/03 07:29:39;;;;;;;31.45;5.53;;;10.90;70.60;;;6.22;100.00;96689.41;4988834;28;20032;-55
2023/01/03 07:32:05;;;;;;;9.18;4.38;;;10.90;70.60;;;6.22;100.00;96692.06;4989660;28;20025;-55
2023/01/03 07:34:31;;;;;;;8.25;4.45;;;10.90;70.70;;;6.24;100.00;96699.81;4967114;28;20472;-55
2023/01/03 07:36:56;;;;;;;7.38;4.20;;;10.90;70.70;;;6.24;100.00;96697.16;4987077;28;20128;-56
2023/01/03 07:39:28;;;;;;;30.08;5.10;;;10.90;70.70;;;6.22;100.00;96697.34;4990260;28;20132;-55
2023/01/03 07:44:38;;;;;;;7.63;4.13;;;10.90;70.70;;;6.22;100.00;96697.34;4986626;28;20060;-57
2023/01/03 07:47:10;;;;;;;9.65;3.88;;;10.90;70.80;;;6.23;100.00;96696.31;4979280;28;20428;-56
2023/01/03 07:49:36;;;;;;;7.95;4.20;;;10.90;70.80;;;6.23;100.00;96693.66;4987598;28;20025;-54
2023/01/03 07:52:02;;;;;;;7.30;4.22;;;10.90;70.80;;;6.23;100.00;96693.66;4926354;28;25531;-54
2023/01/03 07:54:29;;;;;;;8.10;5.05;;;10.90;71.50;;;6.24;100.00;96699.81;4981244;28;20365;-58
2023/01/03 07:56:55;;;;;;;6.07;4.05;;;10.90;70.70;;;6.27;100.00;96702.03;4988937;28;20021;-54
2023/01/03 07:59:21;;;;;;;10.15;4.90;;;10.90;70.70;;;6.28;100.00;96708.94;4985367;28;20017;-55
2023/01/03 08:01:46;;;;;;;8.02;4.72;;;11.00;70.70;;;6.29;100.00;96705.25;4985537;28;20022;-57
2023/01/03 08:04:12;;;;;;;7.53;4.60;;;11.00;70.70;;;6.32;100.00;96709.31;4985133;28;20026;-56
2023/01/03 08:06:39;;;;;;;10.30;4.65;;;11.00;70.70;;;6.32;100.00;96712.78;4982038;28;20151;-55
2023/01/03 08:14:36;;;;;;;6.82;4.28;;;11.10;70.70;;;6.39;100.00;96712.75;4983672;28;20091;-54
2023/01/03 08:17:02;;;;;;;8.02;4.55;;;11.20;70.70;;;6.42;100.00;96709.69;4990179;28;20031;-56
2023/01/03 08:19:28;;;;;;;13.38;3.95;;;11.20;70.60;;;6.44;100.00;96718.22;4979162;28;20030;-57
2023/01/03 08:21:56;;;;;;;6.65;4.25;;;11.30;70.70;;;6.44;100.00;96713.75;4986051;28;20084;-57
2023/01/03 08:24:22;;;;;;;7.70;4.38;;;11.30;70.70;;;6.45;100.00;96718.00;4988316;28;20412;-57
2023/01/03 08:26:48;;;;;;;9.57;3.92;;;11.30;70.60;;;6.47;100.00;96720.47;4986410;28;20096;-55
2023/01/03 08:29:15;;;;;;;7.47;3.90;;;11.40;70.60;;;6.54;100.00;96728.38;4990425;28;20022;-54
2023/01/03 08:31:55;;;;;;;7.88;4.28;;;11.40;70.60;;;6.57;100.00;96727.94;4985518;28;20037;-57
2023/01/03 08:34:25;;;;;;;7.20;3.90;;;11.50;70.70;;;6.57;100.00;96720.00;4983227;28;20057;-58
2023/01/03 08:37:03;;;;;;;8.13;3.80;;;11.50;70.60;;;6.60;100.00;96728.34;4984494;28;20104;-56
2023/01/03 08:39:43;;;;;;;6.82;4.47;;;11.50;70.60;;;6.64;100.00;96739.31;4996636;28;20116;-57
2023/01/03 08:42:19;;;;;;;19.27;4.80;;;11.60;70.60;;;6.69;100.00;96739.50;4989948;28;20481;-57
2023/01/03 08:44:53;;;;;;;6.90;4.20;;;11.60;70.60;;;6.73;100.00;96738.84;4968394;28;20030;-58
2023/01/03 08:47:25;;;;;;;5.45;3.40;;;11.60;70.50;;;6.79;100.00;96750.44;4981727;28;20029;-56
2023/01/03 08:49:57;;;;;;;6.50;4.10;;;11.70;70.50;;;6.83;100.00;96737.59;4966619;28;20034;-58
2023/01/03 08:52:23;;;;;;;7.28;4.57;;;11.70;70.40;;;6.88;100.00;96753.66;4967307;28;20029;-57
2023/01/03 08:54:52;;;;;;;7.70;4.47;;;11.80;70.50;;;6.92;100.00;96752.19;4988885;28;20071;-57
2023/01/03 08:57:20;;;;;;;8.85;4.72;;;11.90;70.40;;;6.94;100.00;96752.81;4985998;28;20030;-57
2023/01/03 08:59:46;;;;;;;7.13;4.70;;;11.90;70.30;;;6.98;100.00;96753.19;4992474;28;20107;-60
2023/01/03 09:02:12;;;;;;;8.15;4.35;;;12.00;70.30;;;7.01;100.00;96748.28;4991087;28;20033;-60
2023/01/03 09:04:38;;;;;;;7.38;4.30;;;12.00;70.20;;;7.04;100.00;96753.16;4983300;28;20044;-60
2023/01/03 09:07:04;;;;;;;5.72;4.07;;;12.10;70.30;;;7.09;100.00;96753.34;4992737;28;20021;-61
2023/01/03 09:09:30;;;;;;;8.07;4.18;;;12.10;70.30;;;7.12;100.00;96758.22;4991779;28;20112;-59
2023/01/03 09:12:05;;;;;;;5.13;3.65;;;12.10;70.30;;;7.15;100.00;96762.28;5008182;28;20033;-59
2023/01/03 09:14:31;;;;;;;5.70;4.47;;;12.10;70.30;;;7.14;100.00;96761.44;4992690;28;20495;-59
2023/01/03 09:16:57;;;;;;;6.50;4.70;;;12.10;70.30;;;7.16;100.00;96761.25;4991936;28;20036;-60
2023/01/03 09:19:23;;;;;;;7.25;5.00;;;12.10;70.30;;;7.20;100.00;96765.06;4971783;28;20109;-60
2023/01/03 09:21:52;;;;;;;7.88;5.50;;;12.10;70.30;;;7.23;100.00;96764.66;4988227;28;20405;-60
2023/01/03 09:24:17;;;;;;;6.43;3.88;;;12.20;70.30;;;7.25;100.00;96775.03;4972052;28;20397;-60
2023/01/03 09:26:47;;;;;;;7.43;4.15;;;12.20;70.20;;;7.29;100.00;96782.34;4992417;28;20029;-60
2023/01/03 09:29:13;;;;;;;5.75;3.92;;;12.20;70.20;;;7.29;100.00;96776.22;4991829;28;20025;-60
2023/01/03 09:31:41;;;;;;;6.00;3.72;;;12.20;70.10;;;7.29;100.00;96785.00;4985853;28;20048;-60
2023/01/03 09:34:07;;;;;;;4.05;3.17;;;12.20;70.20;;;7.32;100.00;96784.56;4989824;28;20049;-60
2023/01/03 09:36:42;;;;;;;5.53;3.00;;;12.30;70.10;;;7.36;100.00;96784.94;4987731;28;20586;-60
2023/01/03 09:39:08;;;;;;;4.32;3.08;;;12.20;70.10;;;7.34;100.00;96792.31;4988921;28;20026;-60
2023/01/03 09:41:38;;;;;;;3.88;3.28;;;12.20;70.00;;;7.31;100.00;96790.91;4981969;28;20097;-58
2023/01/03 09:44:09;;;;;;;4.15;2.83;;;12.20;70.00;;;7.33;100.00;96790.66;4985581;28;20018;-60
2023/01/03 09:46:36;;;;;;;3.55;2.75;;;12.20;70.00;;;7.31;100.00;96798.84;4985040;28;20045;-59
2023/01/03 09:49:06;;;;;;;3.97;2.83;;;12.20;70.00;;;7.31;100.00;96800.69;4994111;28;20149;-60
2023/01/03 10:03:44;;;;;;;4.75;3.08;;;12.20;69.90;;;7.37;100.00;96784.75;4986156;28;20119;-58
2023/01/03 10:06:43;;;;;;;3.95;3.13;;;12.30;70.00;;;7.38;100.00;96783.72;4984748;28;20314;-56
2023/01/03 10:10:04;;;;;;;4.43;3.78;;;12.30;70.00;;;7.44;100.00;96794.50;4989223;28;20041;-60
2023/01/03 10:12:44;;;;;;;3.95;3.28;;;12.30;70.00;;;7.44;100.00;96787.34;4985548;28;20180;-60
2023/01/03 10:15:26;;;;;;;4.60;3.42;;;12.30;70.00;;;7.44;100.00;96791.84;4992497;28;20029;-60
2023/01/03 10:18:38;;;;;;;4.22;3.05;;;12.30;69.90;;;7.50;100.00;96781.19;4990953;28;20030;-59
2023/01/03 10:21:27;;;;;;;6.22;3.78;;;12.40;69.90;;;7.54;100.00;96777.06;4980757;28;20123;-60
2023/01/03 10:23:56;;;;;;;4.07;3.63;;;12.40;69.90;;;7.58;100.00;96774.78;4980859;28;20076;-60
2023/01/03 10:26:31;;;;;;;4.03;3.55;;;12.50;70.00;;;7.53;100.00;96778.09;4986802;28;20116;-59
2023/01/03 10:28:58;;;;;;;4.95;3.63;;;12.50;69.90;;;7.60;100.00;96768.25;4978385;28;20017;-60
2023/01/03 10:31:39;;;;;;;6.78;3.50;;;12.50;69.80;;;7.60;100.00;96775.41;4989442;28;20032;-60
2023/01/03 10:34:09;;;;;;;4.00;3.25;;;12.60;69.80;;;7.54;100.00;96768.31;4990038;28;20029;-60
2023/01/03 10:36:35;;;;;;;6.63;3.40;;;12.60;69.60;;;7.61;100.00;96763.75;4972896;28;20049;-56
2023/01/03 10:39:10;;;;;;;4.38;3.40;;;12.60;69.50;;;7.67;100.00;96772.69;4985740;28;20057;-60
2023/01/03 10:41:45;;;;;;;4.82;2.80;;;12.70;69.60;;;7.79;100.00;96765.66;4985665;28;20425;-60
2023/01/03 10:44:34;;;;;;;2.10;1.88;;;12.80;69.60;;;7.79;100.00;96766.44;4984642;28;20056;-60
2023/01/03 10:47:15;;;;;;;3.85;2.92;;;12.90;69.40;;;7.86;100.00;96763.75;4980934;28;20033;-60
2023/01/03 10:49:45;;;;;;;3.10;2.47;;;13.00;69.30;;;7.92;100.00;96765.53;4987035;28;20113;-60
2023/01/03 10:52:21;;;;;;;3.08;2.45;;;13.00;69.10;;;7.96;100.00;96766.72;4982053;28;20033;-60
2023/01/03 10:55:03;;;;;;;3.83;2.78;;;13.10;69.10;;;7.99;100.00;96774.25;4987662;28;20458;-60
2023/01/03 10:58:01;;;;;;;4.00;3.20;;;13.10;69.00;;;7.97;100.00;96773.66;4968790;28;20392;-59
2023/01/03 11:00:43;;;;;;;5.60;3.38;;;13.00;69.60;;;7.97;100.00;96764.88;4964265;28;20013;-60
2023/01/03 11:03:22;;;;;;;4.70;3.38;;;13.10;68.90;;;8.01;100.00;96764.22;4969033;28;20026;-59
2023/01/03 11:06:00;;;;;;;3.22;2.65;;;13.00;68.90;;;8.00;100.00;96770.56;4985402;28;20021;-59
2023/01/03 11:08:54;;;;;;;4.95;2.88;;;13.10;68.90;;;8.01;100.00;96768.72;4989047;28;20451;-61
2023/01/03 11:11:33;;;;;;;;;;;13.00;68.80;;;8.06;100.00;96776.84;4989469;28;20026;-60
2023/01/03 11:14:25;;;;;;;3.63;2.58;;;13.00;68.80;;;8.05;100.00;96772.53;4986857;28;19952;-59
2023/01/03 11:17:05;;;;;;;6.32;2.67;;;13.00;68.80;;;8.01;100.00;96769.50;4990345;28;20030;-59
2023/01/03 11:19:33;;;;;;;4.05;2.50;;;13.10;68.80;;;8.04;100.00;96766.41;4988746;28;20025;-59
2023/01/03 11:22:33;;;;;;;7.13;2.78;;;13.10;68.70;;;8.08;100.00;96759.66;4974342;28;20493;-60
2023/01/03 11:25:31;;;;;;;4.05;2.38;;;13.10;68.70;;;8.08;100.00;96770.28;4982716;28;20028;-60
2023/01/03 11:28:47;;;;;;;3.10;2.47;;;13.10;68.70;;;8.09;100.00;96766.59;4978781;28;20042;-59
2023/01/03 11:32:01;;;;;;;6.32;2.58;;;13.00;69.50;;;8.02;100.00;96771.16;4981680;28;20034;-58
2023/01/03 11:35:28;;;;;;;4.68;2.92;;;13.00;68.80;;;7.89;100.00;96764.09;4991076;28;20488;-60
2023/01/03 11:38:37;;;;;;;4.18;3.20;;;12.90;68.70;;;7.96;100.00;96763.22;4982715;28;20034;-53
2023/01/03 11:41:46;;;;;;;6.70;4.10;;;12.90;68.80;;;7.98;100.00;96766.50;4980976;28;20041;-58
2023/01/03 11:45:08;;;;;;;5.05;3.70;;;12.90;68.80;;;7.95;100.00;96765.09;4986690;28;20029;-51
2023/01/03 11:48:24;;;;;;;5.65;3.75;;;12.90;68.90;;;8.03;100.00;96762.16;4980828;28;20064;-54
2023/01/03 11:51:21;;;;;;;4.63;3.85;;;12.80;68.90;;;8.03;100.00;96764.81;4976433;28;20508;-52
2023/01/03 11:54:51;;;;;;;5.82;3.35;;;12.90;69.00;;;8.07;100.00;96759.88;4987067;28;20389;-54
2023/01/03 11:58:19;;;;;;;6.28;4.18;;;12.90;68.90;;;8.10;100.00;96762.09;4986286;28;20025;-55
2023/01/03 12:02:05;;;;;;;6.00;3.70;;;13.00;68.90;;;8.11;100.00;96747.78;4947168;28;20599;-55
2023/01/03 12:05:14;;;;;;;7.97;3.80;;;13.10;68.80;;;8.18;100.00;96745.06;4973856;28;20030;-53
2023/01/03 12:07:48;;;;;;;5.60;3.72;;;13.10;68.70;;;8.23;100.00;96746.00;4980252;28;20026;-51